Pownal, Vermont
Current Conditions -  °F | °C
As of 8:16 PM on Monday 26 Jan 2015 (Local Time) from KAQW Reporting Station
Light Snow Light Snow  
Wind Chill:   Ceiling: 3200
Heat Index: 18°   Visibility: 3mi
Dew Point: 11°   Wind: 14mph
Humidity: 74%   Direction: 130°SE
Pressure: 29.97"   Gusts: 20mph
Location:  42.77°N, 73.23°W
Report Text: KAQW 270116Z AUTO 13012G17KT 3SM -SN OVC032 M08/M12 A2997 RMK AO2 P0000 T10781117
Loading
Personal Weather Stations






























Interactive Weather Map New forecast layout! Learn more

10-Day Weather Forecast

Advertisements
Track Severe Weather on mobile